Trieste–Friuli Venezia Giulia Airport

LIPQ · Friuli Venezia Giulia, 意大利

罗盘
风向 的 风向 350° Trieste–Friuli Venezia Giulia Airport 9/27
风: 6 kt, 2 beaufort

1 kt

6 kt
改变
0 ft 2.000 4.000 6.000 8.000 10.000
Cloud Cloud Cloud Cloud Cloud Cloud
BKN 7.500
METAR LIPQ 281220Z AUTO 35006KT 9999 BKN075/// 17/11 Q1017

METAR Trieste–Friuli Venezia Giulia Airport - LIPQ/TRS

Trieste–Friuli Venezia Giulia Airport是,意大利中的中型机场。 该机场位于纬度45,82786和经度13,46790。 该机场有一条跑道: 9/27. 本场的ICAO机场代码为LIPQ。 该机场的IATA代码为TRS。 机场在Milano FIR中。

该航空气象观测是针对Trieste–Friuli Venezia Giulia Airport在2024年2月28日 13:20, 当地时间进行的。

机场观察

风向为350°,速度为6 kt。

可见度为10 km 或者更多。

有碎云在7.500 ft的高度。 破损或更高的上限为7.500 ft。

温度和风寒是17 °C。 露点为11 °C,相对湿度为68%。 海平面上的气压为1017 hPa (QNH)。

白天

今天,太阳从06:47升起,在17:50降落。 这适用于Trieste–Friuli Venezia Giulia Airport,世界夏令时可能有所不同。 当地时间与世界标准时间之间的时差为+1 小时。 当前,没有夏令时有效。

公司介绍

我们没有关于这个机场的公司信息。

体会

到Vliegles.nl去找飞行课程,跳伞和其他飞行体验。 浏览页面,了解Trieste–Friuli Venezia Giulia Airport附近所有可用的活动。 你也可以使用搜索功能来寻找你所在地附近的特定飞行课程、跳伞或其他飞行体验。

跑道

Id 标题 侧风 逆风 侧风 %
9/27 090°-270° 6 kt 1 kt 98 %

逆风成分最大的方向会被突出显示,并用于横风计算。 这并不一定意味着这个方向在使用。

乌云

7.500 ft BKN 碎云

温度 & 天气

温度 17 °C
露点 11 °C
相对湿度 68%
Kp-index 0 (0-9)

白天

日出
06:47
中午
12:18
日落
17:50 (4:07)

小工具

你想在你的网站上有一个关于Trieste–Friuli Venezia Giulia Airport的当前航空天气(METAR)的小部件吗?

显示HTML代码
?>